createdAt,value
2022-10-28T00:01:04.723Z,4.43
2022-10-28T00:03:33.201Z,3.83
2022-10-28T00:06:05.135Z,4.43
2022-10-28T00:08:32.950Z,3.80
2022-10-28T00:11:07.019Z,4.17
2022-10-28T00:13:35.334Z,4.00
2022-10-28T00:16:12.922Z,4.43
2022-10-28T00:18:41.438Z,4.60
2022-10-28T00:21:11.806Z,3.67
2022-10-28T00:23:40.336Z,4.20
2022-10-28T00:26:10.600Z,3.97
2022-10-28T00:28:42.328Z,4.30
2022-10-28T00:31:13.289Z,4.20
2022-10-28T00:33:41.220Z,3.80
2022-10-28T00:36:14.593Z,3.87
2022-10-28T00:38:43.625Z,4.60
2022-10-28T00:41:12.354Z,4.30
2022-10-28T00:43:42.119Z,3.70
2022-10-28T00:46:18.883Z,4.00
2022-10-28T00:48:50.394Z,4.00
2022-10-28T00:51:20.702Z,3.80
2022-10-28T00:53:51.219Z,3.63
2022-10-28T00:56:20.158Z,3.93
2022-10-28T00:58:51.062Z,4.10
2022-10-28T01:01:20.151Z,4.40
2022-10-28T01:03:48.477Z,4.03
2022-10-28T01:06:16.432Z,4.23
2022-10-28T01:08:44.155Z,4.50
2022-10-28T01:11:45.582Z,4.80
2022-10-28T01:14:21.509Z,3.60
2022-10-28T01:17:05.734Z,5.03
2022-10-28T01:19:54.604Z,4.40
2022-10-28T01:22:26.602Z,4.47
2022-10-28T01:25:14.955Z,4.70
2022-10-28T01:28:02.186Z,3.53
2022-10-28T01:30:41.748Z,4.60
2022-10-28T01:33:19.654Z,4.00
2022-10-28T01:35:54.077Z,4.20
2022-10-28T01:38:31.679Z,4.23
2022-10-28T01:41:08.066Z,5.40
2022-10-28T01:43:43.503Z,4.33
2022-10-28T01:46:17.490Z,4.30
2022-10-28T01:48:52.111Z,4.30
2022-10-28T01:51:26.961Z,3.57
2022-10-28T01:53:58.002Z,4.30
2022-10-28T01:56:29.576Z,4.60
2022-10-28T01:59:00.185Z,4.50
2022-10-28T02:01:29.857Z,4.57
2022-10-28T02:03:59.522Z,4.30
2022-10-28T02:06:32.090Z,4.63
2022-10-28T02:09:12.247Z,4.37
2022-10-28T02:11:58.096Z,4.77
2022-10-28T02:14:39.917Z,4.30
2022-10-28T02:17:18.262Z,4.70
2022-10-28T02:19:54.938Z,4.70
2022-10-28T02:22:27.988Z,5.47
2022-10-28T02:25:03.820Z,5.07
2022-10-28T02:27:38.075Z,5.50
2022-10-28T02:30:10.437Z,4.60
2022-10-28T02:32:42.202Z,5.20
2022-10-28T02:35:16.646Z,5.13
2022-10-28T02:37:46.575Z,4.50
2022-10-28T02:40:19.319Z,4.70
2022-10-28T02:42:50.618Z,4.10
2022-10-28T02:45:22.312Z,4.67
2022-10-28T02:47:54.880Z,3.93
2022-10-28T02:50:31.825Z,4.90
2022-10-28T02:53:01.318Z,4.70
2022-10-28T02:55:33.751Z,3.97
2022-10-28T02:58:01.547Z,4.40
2022-10-28T03:00:29.325Z,4.27
2022-10-28T03:02:57.046Z,4.67
2022-10-28T03:05:26.066Z,5.83
2022-10-28T03:07:54.120Z,4.60
2022-10-28T03:10:22.159Z,4.70
2022-10-28T03:12:50.511Z,4.30
2022-10-28T03:15:18.197Z,5.27
2022-10-28T03:17:45.878Z,4.70
2022-10-28T03:20:13.629Z,4.63
2022-10-28T03:22:43.964Z,4.40
2022-10-28T03:25:11.670Z,4.90
2022-10-28T03:27:41.231Z,4.90
2022-10-28T03:30:09.783Z,4.30
2022-10-28T03:32:37.424Z,4.50
2022-10-28T03:35:06.289Z,5.10
2022-10-28T03:37:33.935Z,4.43
2022-10-28T03:40:07.767Z,5.20
2022-10-28T03:42:37.606Z,4.20
2022-10-28T03:45:08.595Z,4.30
2022-10-28T03:47:36.540Z,4.00
2022-10-28T03:50:04.762Z,4.90
2022-10-28T03:52:32.446Z,4.50
2022-10-28T03:55:00.103Z,4.63
2022-10-28T03:57:31.552Z,4.53
2022-10-28T03:59:59.201Z,4.40
2022-10-28T04:02:27.684Z,4.43
2022-10-28T04:04:55.368Z,4.53
2022-10-28T04:07:23.790Z,4.43
2022-10-28T04:09:51.762Z,5.47
2022-10-28T04:12:19.753Z,4.60
2022-10-28T04:14:48.799Z,4.50
2022-10-28T04:17:16.511Z,5.17
2022-10-28T04:19:44.406Z,5.43
2022-10-28T04:22:12.163Z,5.30
2022-10-28T04:24:39.918Z,5.10
2022-10-28T04:27:07.957Z,5.30
2022-10-28T04:29:36.136Z,5.80
2022-10-28T04:32:05.185Z,5.43
2022-10-28T04:34:32.869Z,6.50
2022-10-28T04:37:00.811Z,4.97
2022-10-28T04:39:28.468Z,4.73
2022-10-28T04:41:56.294Z,4.60
2022-10-28T04:44:24.102Z,5.50
2022-10-28T04:46:52.383Z,5.80
2022-10-28T04:49:21.583Z,5.50
2022-10-28T04:51:50.106Z,5.13
2022-10-28T04:54:18.238Z,5.30
2022-10-28T04:56:46.033Z,4.60
2022-10-28T04:59:13.909Z,5.47
2022-10-28T05:01:41.767Z,4.90
2022-10-28T05:04:09.654Z,4.83
2022-10-28T05:06:38.722Z,6.27
2022-10-28T05:09:06.408Z,5.50
2022-10-28T05:11:34.138Z,5.17
2022-10-28T05:14:01.902Z,5.10
2022-10-28T05:16:29.809Z,5.40
2022-10-28T05:18:58.055Z,5.93
2022-10-28T05:21:26.056Z,5.53
2022-10-28T05:23:55.234Z,5.00
2022-10-28T05:26:22.891Z,5.00
2022-10-28T05:28:51.381Z,5.80
2022-10-28T05:31:19.650Z,6.20
2022-10-28T05:33:47.371Z,6.33
2022-10-28T05:36:15.045Z,4.60
2022-10-28T05:38:45.322Z,5.10
2022-10-28T05:41:14.467Z,5.90
2022-10-28T05:43:44.134Z,5.37
2022-10-28T05:46:12.028Z,6.00
2022-10-28T05:48:39.702Z,6.03
2022-10-28T05:51:07.363Z,7.00
2022-10-28T05:53:35.225Z,5.60
2022-10-28T05:56:06.193Z,5.70
2022-10-28T05:58:35.350Z,5.47
2022-10-28T06:01:03.308Z,5.53
2022-10-28T06:03:31.417Z,5.53
2022-10-28T06:06:00.099Z,5.77
2022-10-28T06:08:28.197Z,5.20
2022-10-28T06:10:55.113Z,5.90
2022-10-28T06:13:23.556Z,5.50
2022-10-28T06:15:54.801Z,5.00
2022-10-28T06:18:24.006Z,6.30
2022-10-28T06:20:53.547Z,4.90
2022-10-28T06:23:21.416Z,5.23
2022-10-28T06:25:49.475Z,5.33
2022-10-28T06:28:17.776Z,5.87
2022-10-28T06:30:45.710Z,4.97
2022-10-28T06:33:16.254Z,5.37
2022-10-28T06:35:44.297Z,4.83
2022-10-28T06:38:12.179Z,4.90
2022-10-28T06:40:39.951Z,5.30
2022-10-28T06:43:11.012Z,4.77
2022-10-28T06:45:38.855Z,5.57
2022-10-28T06:48:08.268Z,4.97
2022-10-28T06:50:38.403Z,5.30
2022-10-28T06:53:07.084Z,5.60
2022-10-28T06:55:39.410Z,5.20
2022-10-28T06:58:07.114Z,4.60
2022-10-28T07:00:40.283Z,5.07
2022-10-28T07:03:08.028Z,5.10
2022-10-28T07:05:37.172Z,5.20
2022-10-28T07:08:05.967Z,4.90
2022-10-28T07:10:33.813Z,5.70
2022-10-28T07:13:01.547Z,5.27
2022-10-28T07:15:29.296Z,5.83
2022-10-28T07:17:58.343Z,6.67
2022-10-28T07:20:29.408Z,6.30
2022-10-28T07:22:59.397Z,7.10
2022-10-28T07:25:27.747Z,6.53
2022-10-28T07:27:58.175Z,8.20
2022-10-28T07:30:26.353Z,7.17
2022-10-28T07:32:55.017Z,5.60
2022-10-28T07:35:22.971Z,5.60
2022-10-28T07:38:03.931Z,4.60
2022-10-28T07:40:31.691Z,3.90
2022-10-28T07:43:06.478Z,3.10
2022-10-28T07:45:38.292Z,3.90
2022-10-28T07:48:08.200Z,4.30
2022-10-28T07:50:36.482Z,6.00
2022-10-28T07:53:05.735Z,4.60
2022-10-28T07:55:33.867Z,5.70
2022-10-28T07:58:01.840Z,5.10
2022-10-28T08:00:39.866Z,5.90
2022-10-28T08:03:07.575Z,5.67
2022-10-28T08:05:35.679Z,6.20
2022-10-28T08:08:05.080Z,5.53
2022-10-28T08:10:33.040Z,6.20
2022-10-28T08:13:00.829Z,4.73
2022-10-28T08:15:31.613Z,5.90
2022-10-28T08:17:59.700Z,7.47
2022-10-28T08:20:27.533Z,6.23
2022-10-28T08:22:55.682Z,6.80
2022-10-28T08:25:25.504Z,6.60
2022-10-28T08:27:53.456Z,5.73
2022-10-28T08:30:21.490Z,6.30
2022-10-28T08:32:49.564Z,5.93
2022-10-28T08:35:17.539Z,6.37
2022-10-28T08:37:52.715Z,7.50
2022-10-28T08:40:31.034Z,6.17
2022-10-28T08:43:10.047Z,7.03
2022-10-28T08:45:46.696Z,6.00
2022-10-28T08:48:23.082Z,4.53
2022-10-28T08:50:55.800Z,5.17
2022-10-28T08:53:28.736Z,5.67
2022-10-28T08:56:08.230Z,5.10
2022-10-28T08:58:40.272Z,6.10
2022-10-28T09:01:15.246Z,5.40
2022-10-28T09:03:46.428Z,5.23
2022-10-28T09:06:14.287Z,5.63
2022-10-28T09:08:44.649Z,5.50
2022-10-28T09:11:51.924Z,5.83
2022-10-28T09:14:48.241Z,6.43
2022-10-28T09:17:20.221Z,8.90
2022-10-28T09:19:51.190Z,7.93
2022-10-28T09:22:30.461Z,7.23
2022-10-28T09:25:03.330Z,8.10
2022-10-28T09:27:51.377Z,8.00
2022-10-28T09:30:35.966Z,7.87
2022-10-28T09:33:12.931Z,7.77
2022-10-28T09:35:44.563Z,6.93
2022-10-28T09:38:26.548Z,7.00
2022-10-28T09:40:59.395Z,7.13
2022-10-28T09:43:31.088Z,7.00
2022-10-28T09:46:05.422Z,7.10
2022-10-28T09:48:50.383Z,5.80
2022-10-28T09:51:28.545Z,6.80
2022-10-28T09:53:59.333Z,4.73
2022-10-28T09:56:29.032Z,3.40
2022-10-28T09:58:59.825Z,3.57
2022-10-28T10:01:33.547Z,3.60
2022-10-28T10:04:02.073Z,3.10
2022-10-28T10:06:33.885Z,3.70
2022-10-28T10:09:02.165Z,2.90
2022-10-28T10:11:35.755Z,3.73
2022-10-28T10:14:08.828Z,2.90
2022-10-28T10:16:48.650Z,3.77
2022-10-28T10:19:16.827Z,3.07
2022-10-28T10:21:46.989Z,2.90
2022-10-28T10:24:34.418Z,4.20
2022-10-28T10:27:13.502Z,3.93
2022-10-28T10:29:45.953Z,3.47
2022-10-28T10:32:21.202Z,3.83
2022-10-28T10:34:58.716Z,2.87
2022-10-28T10:37:28.375Z,2.77
2022-10-28T10:40:19.424Z,3.10
2022-10-28T10:43:09.694Z,3.03
2022-10-28T10:45:36.189Z,3.47
2022-10-28T10:48:23.499Z,2.90
2022-10-28T10:50:52.328Z,3.50
2022-10-28T10:53:24.499Z,3.50
2022-10-28T10:56:07.913Z,4.00
2022-10-28T10:58:40.032Z,6.30
2022-10-28T11:01:12.279Z,5.97
2022-10-28T11:03:50.591Z,6.37
2022-10-28T11:06:27.149Z,5.37
2022-10-28T11:09:01.383Z,4.40
2022-10-28T11:11:38.027Z,4.50
2022-10-28T11:14:20.689Z,2.77
2022-10-28T11:16:49.890Z,4.27
2022-10-28T11:19:24.848Z,5.10
2022-10-28T11:22:05.182Z,4.83
2022-10-28T11:24:49.851Z,4.77
2022-10-28T11:27:37.484Z,4.67
2022-10-28T11:30:17.393Z,4.97
2022-10-28T11:33:14.860Z,4.87
2022-10-28T11:35:58.109Z,5.77
2022-10-28T11:38:45.920Z,4.73
2022-10-28T11:41:24.570Z,5.00
2022-10-28T11:44:00.869Z,5.53
2022-10-28T11:46:46.669Z,6.20
2022-10-28T11:49:36.275Z,7.30
2022-10-28T11:52:18.768Z,6.07
2022-10-28T11:54:58.901Z,6.03
2022-10-28T11:57:37.997Z,5.50
2022-10-28T12:00:23.693Z,4.00
2022-10-28T12:03:11.294Z,4.00
2022-10-28T12:05:45.258Z,5.30
2022-10-28T12:08:41.177Z,5.80
2022-10-28T12:11:22.955Z,3.70
2022-10-28T12:16:39.808Z,5.00
2022-10-28T12:19:17.279Z,3.80
2022-10-28T12:21:49.597Z,3.63
2022-10-28T12:24:26.830Z,3.60
2022-10-28T12:26:59.099Z,5.17
2022-10-28T12:29:33.989Z,3.63
2022-10-28T12:32:06.176Z,3.30
2022-10-28T12:34:39.631Z,3.13
2022-10-28T12:37:14.056Z,3.20
2022-10-28T12:39:51.898Z,4.07
2022-10-28T12:42:25.766Z,5.87
2022-10-28T12:44:57.933Z,5.07
2022-10-28T12:47:36.769Z,4.80
2022-10-28T12:50:14.681Z,5.00
2022-10-28T12:52:51.261Z,4.87
2022-10-28T12:55:36.050Z,4.03
2022-10-28T12:58:11.690Z,4.93
2022-10-28T13:00:44.599Z,4.70
2022-10-28T13:03:14.357Z,4.30
2022-10-28T13:05:48.239Z,5.00
2022-10-28T13:08:46.671Z,5.23
2022-10-28T13:12:17.074Z,5.80
2022-10-28T13:15:10.370Z,4.63
2022-10-28T13:17:48.829Z,5.77
2022-10-28T13:20:26.904Z,6.73
2022-10-28T13:23:08.778Z,6.27
2022-10-28T13:25:50.436Z,6.07
2022-10-28T13:28:22.308Z,6.00
2022-10-28T13:30:55.150Z,5.90
2022-10-28T13:33:27.125Z,5.93
2022-10-28T13:35:56.364Z,5.30
2022-10-28T13:38:27.865Z,6.00
2022-10-28T13:41:48.921Z,5.23
2022-10-28T13:44:50.679Z,5.33
2022-10-28T13:47:34.257Z,7.40
2022-10-28T13:50:37.136Z,6.97
2022-10-28T13:53:44.238Z,5.63
2022-10-28T13:56:34.372Z,6.30
2022-10-28T13:59:06.154Z,6.30
2022-10-28T14:02:07.459Z,5.53
2022-10-28T14:04:38.206Z,5.87
2022-10-28T14:07:26.671Z,5.67
2022-10-28T14:09:58.502Z,6.03
2022-10-28T14:12:31.717Z,5.73
2022-10-28T14:15:07.151Z,5.60
2022-10-28T14:17:42.488Z,5.57
2022-10-28T14:20:26.008Z,4.37
2022-10-28T14:22:54.373Z,3.67
2022-10-28T14:26:04.361Z,3.33
2022-10-28T14:28:52.527Z,3.53
2022-10-28T14:31:39.966Z,3.40
2022-10-28T14:34:42.904Z,3.50
2022-10-28T14:37:41.836Z,4.23
2022-10-28T14:40:23.485Z,4.40
2022-10-28T14:43:03.720Z,4.63
2022-10-28T14:45:41.219Z,4.20
2022-10-28T14:48:38.171Z,4.70
2022-10-28T14:51:13.632Z,4.93
2022-10-28T14:53:43.477Z,3.60
2022-10-28T14:56:19.210Z,4.87
2022-10-28T14:58:48.474Z,4.23
2022-10-28T15:01:28.016Z,4.67
2022-10-28T15:04:01.723Z,4.10
2022-10-28T15:06:40.408Z,5.03
2022-10-28T15:09:21.532Z,4.17
2022-10-28T15:11:52.875Z,4.53
2022-10-28T15:14:29.779Z,4.50
2022-10-28T15:16:58.113Z,4.23
2022-10-28T15:19:29.058Z,4.90
2022-10-28T15:22:07.143Z,4.90
2022-10-28T15:24:35.225Z,4.00
2022-10-28T15:27:03.088Z,4.17
2022-10-28T15:29:31.240Z,3.63
2022-10-28T15:32:25.197Z,3.60
2022-10-28T15:34:53.454Z,3.27
2022-10-28T15:37:24.758Z,4.17
2022-10-28T15:39:55.500Z,3.20
2022-10-28T15:42:32.454Z,3.70
2022-10-28T15:45:00.929Z,3.60
2022-10-28T15:47:34.375Z,3.70
2022-10-28T15:52:45.581Z,4.03
2022-10-28T15:58:35.639Z,5.03
2022-10-28T16:01:03.698Z,5.27
2022-10-28T16:03:43.430Z,4.53
2022-10-28T16:06:24.757Z,5.43
2022-10-28T16:09:03.686Z,6.40
2022-10-28T16:11:32.689Z,5.77
2022-10-28T16:14:03.867Z,6.83
2022-10-28T16:16:32.642Z,4.60
2022-10-28T16:19:08.321Z,4.93
2022-10-28T16:21:37.356Z,4.53
2022-10-28T16:24:07.015Z,4.57
2022-10-28T16:26:34.855Z,4.33
2022-10-28T16:29:02.674Z,5.43
2022-10-28T16:31:32.009Z,5.07
2022-10-28T16:34:00.059Z,4.90
2022-10-28T16:36:28.524Z,6.23
2022-10-28T16:38:56.314Z,6.70
2022-10-28T16:41:26.223Z,5.37
2022-10-28T16:43:55.890Z,5.27
2022-10-28T16:46:23.801Z,6.27
2022-10-28T16:48:51.968Z,5.37
2022-10-28T16:51:19.955Z,5.70
2022-10-28T16:53:49.638Z,5.70
2022-10-28T16:56:18.347Z,5.70
2022-10-28T16:58:47.688Z,6.67
2022-10-28T17:01:20.279Z,5.47
2022-10-28T17:03:48.507Z,5.93
2022-10-28T17:06:16.257Z,5.70
2022-10-28T17:14:06.145Z,6.47
2022-10-28T17:16:35.174Z,6.30
2022-10-28T17:19:07.065Z,7.37
2022-10-28T17:21:35.306Z,7.37
2022-10-28T17:24:02.988Z,6.80
2022-10-28T17:26:30.673Z,6.03
2022-10-28T17:28:58.885Z,6.97
2022-10-28T17:31:28.114Z,6.70
2022-10-28T17:33:56.278Z,6.63
2022-10-28T17:36:24.361Z,6.70
2022-10-28T17:38:52.764Z,6.00
2022-10-28T17:41:20.786Z,7.07
2022-10-28T17:43:49.089Z,6.97
2022-10-28T17:46:16.782Z,6.87
2022-10-28T17:48:46.100Z,7.10
2022-10-28T17:51:14.502Z,6.90
2022-10-28T17:53:42.375Z,6.80
2022-10-28T17:56:11.996Z,7.37
2022-10-28T17:58:39.869Z,7.37
2022-10-28T18:01:09.520Z,6.70
2022-10-28T18:03:38.893Z,5.53
2022-10-28T18:06:12.246Z,6.03
2022-10-28T18:08:42.284Z,6.33
2022-10-28T18:11:12.185Z,5.93
2022-10-28T18:13:42.447Z,5.97
2022-10-28T18:16:12.523Z,7.03
2022-10-28T18:18:42.719Z,7.40
2022-10-28T18:21:12.664Z,7.60
2022-10-28T18:23:41.673Z,8.47
2022-10-28T18:26:12.729Z,8.00
2022-10-28T18:28:42.108Z,7.30
2022-10-28T18:31:12.700Z,8.23
2022-10-28T18:33:41.136Z,8.20
2022-10-28T18:36:13.730Z,7.10
2022-10-28T18:38:41.929Z,7.00
2022-10-28T18:41:12.184Z,8.47
2022-10-28T18:43:40.276Z,7.70
2022-10-28T18:46:08.446Z,8.57
2022-10-28T18:48:36.523Z,6.97
2022-10-28T18:51:07.391Z,7.77
2022-10-28T18:53:38.648Z,5.90
2022-10-28T18:56:07.781Z,7.00
2022-10-28T18:58:35.817Z,6.30
2022-10-28T19:01:08.249Z,6.47
2022-10-28T19:03:36.909Z,7.30
2022-10-28T19:06:06.606Z,6.90
2022-10-28T19:08:34.479Z,6.07
2022-10-28T19:11:04.020Z,6.10
2022-10-28T19:13:34.013Z,5.90
2022-10-28T19:16:01.974Z,6.70
2022-10-28T19:18:32.624Z,5.80
2022-10-28T19:21:04.336Z,7.73
2022-10-28T19:23:32.854Z,6.60
2022-10-28T19:26:01.282Z,6.87
2022-10-28T19:28:30.614Z,5.50
2022-10-28T19:31:02.218Z,6.30
2022-10-28T19:33:31.138Z,5.07
2022-10-28T19:36:03.152Z,5.63
2022-10-28T19:38:32.630Z,6.17
2022-10-28T19:41:07.357Z,6.50
2022-10-28T19:43:37.782Z,6.57
2022-10-28T19:46:11.343Z,6.83
2022-10-28T19:48:40.821Z,6.33
2022-10-28T19:51:09.326Z,5.80
2022-10-28T19:53:37.225Z,6.00
2022-10-28T19:56:05.728Z,6.47
2022-10-28T19:58:34.867Z,6.73
2022-10-28T20:01:06.725Z,7.00
2022-10-28T20:03:36.901Z,8.20
2022-10-28T20:06:08.379Z,6.73
2022-10-28T20:08:38.750Z,6.50
2022-10-28T20:11:08.434Z,6.30
2022-10-28T20:13:37.426Z,6.27
2022-10-28T20:16:09.398Z,5.63
2022-10-28T20:18:37.547Z,6.17
2022-10-28T20:21:06.492Z,7.03
2022-10-28T20:23:35.813Z,5.23
2022-10-28T20:26:04.849Z,6.03
2022-10-28T20:28:33.253Z,5.50
2022-10-28T20:31:03.068Z,6.50
2022-10-28T20:33:32.549Z,5.97
2022-10-28T20:36:00.737Z,5.80
2022-10-28T20:38:29.418Z,5.20
2022-10-28T20:40:58.812Z,6.03
2022-10-28T20:43:30.372Z,5.53
2022-10-28T20:45:59.838Z,5.70
2022-10-28T20:48:28.694Z,5.67
2022-10-28T20:50:59.588Z,5.00
2022-10-28T20:53:31.342Z,5.20
2022-10-28T20:55:59.729Z,5.87
2022-10-28T20:58:30.877Z,5.60
2022-10-28T21:01:04.031Z,5.40
2022-10-28T21:03:32.394Z,6.63
2022-10-28T21:06:03.783Z,5.50
2022-10-28T21:08:32.243Z,5.83
2022-10-28T21:11:02.528Z,6.40
2022-10-28T21:13:30.766Z,5.60
2022-10-28T21:16:12.240Z,4.83
2022-10-28T21:18:43.321Z,6.30
2022-10-28T21:21:17.225Z,6.20
2022-10-28T21:23:50.766Z,6.40
2022-10-28T21:26:24.980Z,6.00
2022-10-28T21:29:01.715Z,6.37
2022-10-28T21:31:33.442Z,6.27
2022-10-28T21:34:07.412Z,6.30
2022-10-28T21:36:50.158Z,6.20
2022-10-28T21:39:21.456Z,6.67
2022-10-28T21:42:01.372Z,7.17
2022-10-28T21:44:30.559Z,6.30
2022-10-28T21:47:03.055Z,6.63
2022-10-28T21:49:38.137Z,6.90
2022-10-28T21:52:11.188Z,6.70
2022-10-28T21:54:39.188Z,7.40
2022-10-28T21:57:07.214Z,7.00
2022-10-28T21:59:39.595Z,4.10
2022-10-28T22:02:22.107Z,5.97
2022-10-28T22:05:19.867Z,6.47
2022-10-28T22:08:05.067Z,6.00
2022-10-28T22:10:41.224Z,6.07
2022-10-28T22:13:20.467Z,6.20
2022-10-28T22:16:03.291Z,6.27
2022-10-28T22:18:40.062Z,5.97
2022-10-28T22:21:25.399Z,5.77
2022-10-28T22:24:05.894Z,6.20
2022-10-28T22:26:35.609Z,5.70
2022-10-28T22:29:03.666Z,6.20
2022-10-28T22:31:33.254Z,5.57
2022-10-28T22:34:01.665Z,6.33
2022-10-28T22:36:30.922Z,6.20
2022-10-28T22:39:00.865Z,5.67
2022-10-28T22:41:30.806Z,6.67
2022-10-28T22:44:00.720Z,6.97
2022-10-28T22:46:30.811Z,5.67
2022-10-28T22:48:58.849Z,5.60
2022-10-28T22:51:26.853Z,6.77
2022-10-28T22:53:54.899Z,7.30
2022-10-28T22:56:25.763Z,5.97
2022-10-28T22:58:56.024Z,6.37
2022-10-28T23:01:25.209Z,6.50
2022-10-28T23:03:53.955Z,6.60
2022-10-28T23:06:23.513Z,6.70
2022-10-28T23:08:51.563Z,7.03
2022-10-28T23:11:21.937Z,7.20
2022-10-28T23:13:53.710Z,6.67
2022-10-28T23:16:22.913Z,6.97
2022-10-28T23:18:52.952Z,6.37
2022-10-28T23:21:22.417Z,6.67
2022-10-28T23:23:54.345Z,7.00
2022-10-28T23:26:22.814Z,6.03
2022-10-28T23:28:53.853Z,6.43
2022-10-28T23:31:22.455Z,5.70
2022-10-28T23:33:50.996Z,6.20
2022-10-28T23:36:19.219Z,6.23
2022-10-28T23:38:46.949Z,6.73
2022-10-28T23:41:18.775Z,5.50
2022-10-28T23:43:48.913Z,5.67
2022-10-28T23:46:18.331Z,5.30
2022-10-28T23:48:46.173Z,6.17
2022-10-28T23:51:14.119Z,5.20
2022-10-28T23:53:42.060Z,5.80
2022-10-28T23:56:09.962Z,5.57
2022-10-28T23:58:37.746Z,5.33
